createdAt,value
2022-10-04T00:02:35.381Z,6.03
2022-10-04T00:05:41.914Z,5.13
2022-10-04T00:08:54.870Z,5.75
2022-10-04T00:11:59.357Z,5.53
2022-10-04T00:15:31.097Z,5.28
2022-10-04T00:18:46.490Z,5.80
2022-10-04T00:21:59.422Z,6.63
2022-10-04T00:25:10.628Z,8.10
2022-10-04T00:28:26.806Z,5.82
2022-10-04T00:31:30.905Z,5.07
2022-10-04T00:34:34.534Z,5.07
2022-10-04T00:37:58.574Z,5.97
2022-10-04T00:41:09.722Z,7.15
2022-10-04T00:44:19.349Z,8.27
2022-10-04T00:47:45.414Z,8.65
2022-10-04T00:51:20.945Z,7.70
2022-10-04T00:54:42.567Z,9.13
2022-10-04T00:57:50.445Z,8.85
2022-10-04T01:00:57.099Z,6.70
2022-10-04T01:04:04.376Z,7.05
2022-10-04T01:07:09.309Z,7.55
2022-10-04T01:10:21.144Z,8.60
2022-10-04T01:17:24.907Z,6.35
2022-10-04T01:21:02.533Z,5.55
2022-10-04T01:24:11.639Z,5.07
2022-10-04T01:27:46.178Z,4.95
2022-10-04T01:31:00.659Z,5.07
2022-10-04T01:34:10.236Z,5.60
2022-10-04T01:37:17.768Z,5.13
2022-10-04T01:40:23.309Z,4.47
2022-10-04T01:43:34.197Z,3.15
2022-10-04T01:46:43.208Z,4.88
2022-10-04T01:49:53.379Z,5.15
2022-10-04T01:53:27.757Z,5.03
2022-10-04T01:56:42.056Z,4.53
2022-10-04T01:59:54.172Z,4.68
2022-10-04T02:03:38.873Z,3.30
2022-10-04T02:06:48.306Z,4.00
2022-10-04T02:13:47.111Z,4.05
2022-10-04T02:16:54.927Z,4.00
2022-10-04T02:20:07.215Z,3.92
2022-10-04T02:23:17.571Z,5.63
2022-10-04T02:26:27.260Z,3.58
2022-10-04T02:29:33.698Z,4.45
2022-10-04T02:33:02.055Z,4.13
2022-10-04T02:36:07.671Z,4.65
2022-10-04T02:39:29.031Z,3.97
2022-10-04T02:42:42.483Z,4.15
2022-10-04T02:46:09.853Z,3.53
2022-10-04T02:49:37.198Z,3.80
2022-10-04T02:52:51.145Z,4.45
2022-10-04T02:55:59.842Z,3.72
2022-10-04T02:59:09.830Z,3.58
2022-10-04T03:02:41.881Z,3.50
2022-10-04T03:06:10.060Z,3.65
2022-10-04T03:09:16.421Z,3.50
2022-10-04T03:12:25.965Z,3.83
2022-10-04T03:15:33.084Z,4.05
2022-10-04T03:18:42.547Z,4.30
2022-10-04T03:21:53.118Z,3.45
2022-10-04T03:25:00.568Z,3.47
2022-10-04T03:28:07.548Z,3.60
2022-10-04T03:31:15.780Z,5.00
2022-10-04T03:34:22.634Z,4.43
2022-10-04T03:37:31.383Z,3.60
2022-10-04T03:40:38.981Z,2.80
2022-10-04T03:43:51.608Z,2.57
2022-10-04T03:46:57.456Z,3.78
2022-10-04T03:50:16.214Z,3.72
2022-10-04T03:53:36.102Z,3.60
2022-10-04T03:56:41.161Z,2.30
2022-10-04T03:59:46.015Z,2.47
2022-10-04T04:03:00.943Z,2.45
2022-10-04T04:06:15.278Z,2.78
2022-10-04T04:09:26.590Z,2.60
2022-10-04T04:12:41.707Z,2.58
2022-10-04T04:15:46.279Z,2.47
2022-10-04T04:18:53.922Z,3.63
2022-10-04T04:25:12.025Z,2.70
2022-10-04T04:28:33.651Z,3.25
2022-10-04T04:32:03.462Z,2.90
2022-10-04T04:35:12.280Z,3.13
2022-10-04T04:38:24.331Z,2.35
2022-10-04T04:41:32.264Z,2.17
2022-10-04T04:44:38.559Z,3.30
2022-10-04T04:47:52.607Z,3.53
2022-10-04T04:50:59.309Z,3.28
2022-10-04T04:54:07.666Z,3.45
2022-10-04T04:57:17.419Z,3.35
2022-10-04T05:00:31.933Z,4.03
2022-10-04T05:03:35.847Z,3.58
2022-10-04T05:06:44.184Z,4.18
2022-10-04T05:09:50.008Z,4.90
2022-10-04T05:16:52.964Z,4.00
2022-10-04T05:23:19.476Z,2.50
2022-10-04T05:26:31.467Z,2.83
2022-10-04T05:29:47.535Z,2.97
2022-10-04T05:33:07.774Z,2.53
2022-10-04T05:36:12.540Z,2.58
2022-10-04T05:39:31.512Z,3.03
2022-10-04T05:46:31.427Z,2.75
2022-10-04T05:49:44.554Z,4.55
2022-10-04T05:52:54.134Z,3.28
2022-10-04T06:00:06.746Z,2.70
2022-10-04T06:03:40.723Z,2.70
2022-10-04T06:06:58.944Z,2.85
2022-10-04T06:10:34.310Z,2.78
2022-10-04T06:13:41.823Z,2.75
2022-10-04T06:17:21.176Z,3.38
2022-10-04T06:20:37.386Z,2.80
2022-10-04T06:24:08.790Z,1.80
2022-10-04T06:27:24.315Z,2.00
2022-10-04T06:30:43.791Z,2.40
2022-10-04T06:33:57.358Z,2.80
2022-10-04T06:37:21.999Z,3.00
2022-10-04T06:40:47.515Z,2.53
2022-10-04T06:44:07.444Z,3.05
2022-10-04T06:47:40.051Z,2.10
2022-10-04T06:51:01.446Z,1.98
2022-10-04T06:54:25.911Z,2.22
2022-10-04T06:57:50.524Z,2.63
2022-10-04T07:01:23.722Z,2.67
2022-10-04T07:05:08.807Z,2.42
2022-10-04T07:08:35.908Z,2.60
2022-10-04T07:11:52.102Z,5.15
2022-10-04T07:15:05.742Z,2.40
2022-10-04T07:18:25.233Z,4.15
2022-10-04T07:21:46.283Z,3.15
2022-10-04T07:25:19.120Z,4.00
2022-10-04T07:28:51.341Z,3.63
2022-10-04T07:32:10.785Z,2.60
2022-10-04T07:35:28.004Z,2.80
2022-10-04T07:38:39.496Z,4.13
2022-10-04T07:41:59.594Z,4.15
2022-10-04T07:45:31.465Z,3.00
2022-10-04T07:48:42.435Z,3.00
2022-10-04T07:52:11.735Z,4.65
2022-10-04T07:55:25.614Z,2.97
2022-10-04T07:58:50.888Z,3.80
2022-10-04T08:02:28.888Z,2.70
2022-10-04T08:05:57.063Z,4.72
2022-10-04T08:09:18.723Z,2.92
2022-10-04T08:12:31.218Z,4.10
2022-10-04T08:15:42.848Z,3.17
2022-10-04T08:19:15.100Z,3.00
2022-10-04T08:22:34.562Z,2.38
2022-10-04T08:26:11.447Z,2.60
2022-10-04T08:29:37.185Z,3.53
2022-10-04T08:32:57.066Z,5.83
2022-10-04T08:36:16.342Z,3.67
2022-10-04T08:39:30.117Z,4.00
2022-10-04T08:42:52.225Z,2.97
2022-10-04T08:46:11.166Z,2.42
2022-10-04T08:49:35.894Z,2.72
2022-10-04T08:52:59.680Z,3.78
2022-10-04T08:56:37.144Z,3.40
2022-10-04T08:59:59.770Z,4.15
2022-10-04T09:03:44.463Z,4.32
2022-10-04T09:07:11.064Z,3.33
2022-10-04T09:10:45.145Z,3.42
2022-10-04T09:14:26.284Z,4.10
2022-10-04T09:17:38.085Z,2.47
2022-10-04T09:21:00.714Z,3.10
2022-10-04T09:24:34.685Z,2.90
2022-10-04T09:28:15.930Z,3.53
2022-10-04T09:31:39.770Z,3.80
2022-10-04T09:34:58.469Z,3.53
2022-10-04T09:38:42.312Z,4.03
2022-10-04T09:42:05.227Z,4.72
2022-10-04T09:45:35.699Z,5.28
2022-10-04T09:49:16.647Z,4.78
2022-10-04T09:52:41.063Z,8.10
2022-10-04T09:56:21.384Z,5.93
2022-10-04T09:59:41.845Z,6.57
2022-10-04T10:03:13.505Z,6.78
2022-10-04T10:06:25.155Z,7.15
2022-10-04T10:10:01.657Z,18.20
2022-10-04T10:13:32.277Z,87.72
2022-10-04T10:16:54.696Z,14.73
2022-10-04T10:20:23.963Z,18.65
2022-10-04T10:23:40.527Z,53.67
2022-10-04T10:26:50.530Z,31.10
2022-10-04T10:30:24.666Z,25.27
2022-10-04T10:33:28.607Z,16.55
2022-10-04T10:36:48.088Z,47.30
2022-10-04T10:40:17.432Z,28.33
2022-10-04T10:43:39.439Z,10.18
2022-10-04T10:46:56.043Z,11.60
2022-10-04T10:54:01.698Z,12.20
2022-10-04T10:57:42.947Z,9.93
2022-10-04T11:01:31.050Z,13.23
2022-10-04T11:05:11.068Z,19.27
2022-10-04T11:08:56.376Z,23.00
2022-10-04T11:12:28.793Z,21.98
2022-10-04T11:15:39.019Z,22.77
2022-10-04T11:19:05.431Z,26.02
2022-10-04T11:22:18.109Z,25.00
2022-10-04T11:25:50.058Z,21.08
2022-10-04T11:28:57.277Z,15.73
2022-10-04T11:32:01.371Z,16.57
2022-10-04T11:35:29.545Z,17.10
2022-10-04T11:38:51.365Z,19.48
2022-10-04T11:42:08.332Z,22.52
2022-10-04T11:45:46.267Z,27.17
2022-10-04T11:49:12.671Z,16.27
2022-10-04T11:52:40.939Z,20.23
2022-10-04T11:55:58.313Z,21.73
2022-10-04T11:59:14.077Z,26.10
2022-10-04T12:02:57.570Z,25.45
2022-10-04T12:06:23.237Z,10.70
2022-10-04T12:10:15.146Z,19.67
2022-10-04T12:13:42.475Z,24.10
2022-10-04T12:16:53.027Z,23.95
2022-10-04T12:20:30.455Z,22.38
2022-10-04T12:24:01.371Z,32.80
2022-10-04T12:27:36.749Z,7.18
2022-10-04T12:31:10.297Z,14.88
2022-10-04T12:34:46.859Z,23.13
2022-10-04T12:38:37.487Z,13.40
2022-10-04T12:42:00.054Z,12.63
2022-10-04T12:45:04.325Z,19.92
2022-10-04T12:48:26.239Z,18.13
2022-10-04T12:51:44.890Z,19.88
2022-10-04T12:55:10.352Z,22.80
2022-10-04T12:58:54.949Z,13.65
2022-10-04T13:02:05.477Z,12.25
2022-10-04T13:05:27.285Z,16.88
2022-10-04T13:08:57.453Z,8.43
2022-10-04T13:12:19.132Z,11.18
2022-10-04T13:15:26.400Z,8.80
2022-10-04T13:18:48.725Z,10.88
2022-10-04T13:22:43.947Z,11.98
2022-10-04T13:26:04.521Z,8.52
2022-10-04T13:29:20.041Z,9.65
2022-10-04T13:32:29.282Z,10.50
2022-10-04T13:35:37.364Z,10.40
2022-10-04T13:42:18.339Z,8.00
2022-10-04T13:45:42.712Z,7.55
2022-10-04T13:49:12.718Z,7.20
2022-10-04T13:53:05.656Z,7.28
2022-10-04T13:56:40.584Z,11.40
2022-10-04T13:59:53.296Z,15.63
2022-10-04T14:03:15.125Z,14.60
2022-10-04T14:06:36.333Z,11.82
2022-10-04T14:09:58.108Z,11.55
2022-10-04T14:13:39.333Z,9.30
2022-10-04T14:16:58.188Z,18.95
2022-10-04T14:20:33.057Z,23.35
2022-10-04T14:23:55.458Z,20.92
2022-10-04T14:27:32.624Z,26.67
2022-10-04T14:31:03.572Z,22.43
2022-10-04T14:34:22.512Z,18.30
2022-10-04T14:37:43.185Z,16.85
2022-10-04T14:40:46.807Z,15.07
2022-10-04T14:44:12.155Z,19.52
2022-10-04T14:47:23.622Z,16.55
2022-10-04T14:50:30.167Z,18.65
2022-10-04T14:53:43.046Z,17.77
2022-10-04T14:57:00.399Z,14.88
2022-10-04T15:00:19.516Z,15.05
2022-10-04T15:17:08.266Z,13.93
2022-10-04T16:24:26.381Z,11.52
2022-10-04T16:53:07.382Z,11.20
2022-10-04T17:12:23.346Z,12.23
2022-10-04T17:15:30.057Z,8.30
2022-10-04T17:18:46.765Z,10.82
2022-10-04T17:22:48.719Z,12.20
2022-10-04T17:35:09.509Z,11.80
2022-10-04T17:42:44.671Z,11.18
2022-10-04T17:46:30.863Z,10.52
2022-10-04T17:58:52.804Z,8.23
2022-10-04T18:05:58.637Z,10.52
2022-10-04T18:09:32.584Z,9.95
2022-10-04T19:11:37.668Z,11.75
2022-10-04T19:14:59.609Z,11.20
2022-10-04T19:18:30.145Z,10.93
2022-10-04T19:21:44.598Z,10.23
2022-10-04T19:33:01.080Z,11.95
2022-10-04T19:36:24.931Z,11.48
2022-10-04T19:40:02.241Z,11.32
2022-10-04T19:43:35.047Z,10.65
2022-10-04T19:47:18.679Z,8.90
2022-10-04T19:50:52.467Z,9.35
2022-10-04T19:58:31.192Z,10.18
2022-10-04T20:02:00.144Z,10.07
2022-10-04T20:25:46.714Z,6.63
2022-10-04T20:28:57.442Z,6.80
2022-10-04T20:32:07.379Z,5.85
2022-10-04T20:35:54.762Z,6.80
2022-10-04T20:39:06.727Z,6.65
2022-10-04T20:42:21.502Z,7.78
2022-10-04T20:45:35.113Z,7.28
2022-10-04T20:48:47.190Z,5.35
2022-10-04T20:59:19.661Z,6.75
2022-10-04T21:02:30.480Z,6.10
2022-10-04T21:08:56.947Z,6.43
2022-10-04T21:12:05.420Z,7.30
2022-10-04T21:26:59.072Z,7.75
2022-10-04T21:30:08.858Z,7.10
2022-10-04T21:43:09.695Z,5.82
2022-10-04T21:49:55.260Z,4.10
2022-10-04T21:53:11.274Z,5.43
2022-10-04T21:56:17.365Z,5.78
2022-10-04T21:59:49.693Z,4.95
2022-10-04T22:02:57.001Z,4.57
2022-10-04T22:06:03.647Z,5.00
2022-10-04T22:09:09.823Z,4.00
2022-10-04T22:12:15.450Z,5.60
2022-10-04T22:15:23.917Z,6.53
2022-10-04T22:18:28.659Z,7.22
2022-10-04T22:21:53.559Z,8.45
2022-10-04T22:25:03.020Z,9.25
2022-10-04T22:28:32.713Z,7.80
2022-10-04T22:35:23.853Z,5.65
2022-10-04T22:41:59.955Z,7.18
2022-10-04T22:45:07.383Z,6.35
2022-10-04T22:48:16.175Z,8.30
2022-10-04T22:51:21.155Z,7.43
2022-10-04T22:54:32.909Z,6.60
2022-10-04T22:57:36.636Z,8.07
2022-10-04T23:00:39.832Z,6.47
2022-10-04T23:03:47.209Z,6.50
2022-10-04T23:06:51.620Z,6.65
2022-10-04T23:09:54.773Z,8.43
2022-10-04T23:12:59.376Z,6.03
2022-10-04T23:16:17.490Z,6.80
2022-10-04T23:19:21.661Z,6.88
2022-10-04T23:22:30.671Z,7.07
2022-10-04T23:25:35.425Z,7.10
2022-10-04T23:28:39.280Z,8.13
2022-10-04T23:31:43.274Z,7.57
2022-10-04T23:34:55.721Z,8.15
2022-10-04T23:38:07.802Z,7.28
2022-10-04T23:41:12.692Z,6.97
2022-10-04T23:44:17.046Z,5.38
2022-10-04T23:47:22.212Z,5.72
2022-10-04T23:50:32.034Z,7.30
2022-10-04T23:53:36.817Z,6.18
2022-10-04T23:56:42.325Z,6.80
2022-10-04T23:59:46.150Z,6.00
